Belle Isle Bank: Past 24 Hour Conditions

 

Îles de la Madeleine Airport

02:00 AM ADT 18 September 2014
This table is a summary of hourly weather conditions for the past 24 hours.
Date / Time
(ADT)
Wind(knots) Conditions Visibility(km) Pressure(kPa) Air tempC) Relative humidity(%) Dew pointC)
18 September 2014
2:00 ENE 4 N/A N/A 101.4 10 91 8
1:00 E 3 N/A N/A 101.5 9 89 8
0:00 NE 2 N/A N/A 101.5 9 89 7
17 September 2014
23:00 NE 3 Clear 24 101.5 10 86 7
22:00 NNE 6 Clear 24 101.5 8 91 7
21:00 NE 5 Clear 24 101.5 10 88 8
20:00 NE 6 Mainly Clear 24 101.4 10 88 8
19:00 WNW 11 Mainly Sunny 32 101.3 14 69 8
18:00 WNW 11 Mainly Sunny 32 101.3 15 64 8
17:00 WNW 10 gust 16 Mainly Sunny 32 101.3 15 72 10
16:00 WNW 13 Mainly Sunny 32 101.3 16 68 10
15:00 W 14 Mainly Sunny 32 101.2 16 67 10
14:00 W 14 gust 20 Mainly Sunny 32 101.2 17 72 12
13:00 W 17 gust 22 Partly Cloudy 32 101.2 17 67 11
12:00 WSW 14 Mainly Sunny 32 101.2 18 67 12
11:00 WSW 16 gust 21 Mainly Sunny 32 101.2 17 71 11
10:00 WSW 14 Mainly Sunny 32 101.1 16 72 11
9:00 WSW 13 Partly Cloudy 32 101.1 15 79 11
8:00 WSW 11 Partly Cloudy 32 101.1 14 84 12
7:00 WSW 11 Partly Cloudy 32 101.1 13 88 11
6:00 SW 7 Partly Cloudy 24 101.1 12 91 11
5:00 WSW 8 N/A N/A 101.0 12 92 11
4:00 WSW 11 N/A N/A 101.1 13 89 11
3:00 WSW 9 N/A N/A 101.1 13 90 11
2:00 WSW 13 N/A N/A 101.1 13 90 12
 
Map of Atlantic - Newfoundland marine weather areas Southwestern Grand Banks - 44138 Banquereau - 44139 Tail of the Bank - 44140 Nickerson Bank - 44251 Northeast Burgeo Bank - 44255 Blanc-Sablon Airport Cap Whittle Chevery Natashquan Airport Heath Point Miscou Island Grand Étang Ingonish Beach North Mountain St.Paul Island J.A. Douglas McCurdy Sydney Airport Charlottetown Airport East Point North Cape Argentia Bonavista Burgeo Cape Race Corner Brook Daniel's Harbour Englee Ferolle Point La Scie Port aux Basques Rocky Harbour Sagona Island St. Anthony Airport St. John's Int'l Airport St. Lawrence Stephenville Airport Twillingate Winterland Wreckhouse Cartwright Airport Mary's Harbour Grates Cove Pool's Island Marticot Island Long Pond Îles de la Madeleine Airport
Legend: buoyBuoy land stationLand Station